Time,TemperatureF,DewpointF,PressureIn,WindDirection,WindDirectionDegrees,WindSpeedMPH,WindSpeedGustMPH,Humidity,HourlyPrecipIn,Conditions,Clouds,dailyrainin,SoftwareType,DateUTC
2013-04-12 00:08:00,33.4,31.3,-100.00,North,-999,-999.0,-999.0,89,-99.99,,,-99.99,Homeseer,2013-04-12 04:08:00,
2013-04-12 00:18:00,33.4,31.3,-100.00,North,-999,-999.0,-999.0,89,-99.99,,,-99.99,Homeseer,2013-04-12 04:18:00,
2013-04-12 00:28:00,33.4,31.3,-100.00,North,-999,-999.0,-999.0,89,-99.99,,,-99.99,Homeseer,2013-04-12 04:28:00,
2013-04-12 00:48:00,33.1,31.0,-100.00,North,-999,-999.0,-999.0,89,-99.99,,,-99.99,Homeseer,2013-04-12 04:48:00,
2013-04-12 00:58:00,32.9,30.8,-100.00,North,-999,-999.0,-999.0,89,-99.99,,,-99.99,Homeseer,2013-04-12 04:58:00,
2013-04-12 01:08:00,33.3,31.2,-100.00,North,-999,-999.0,-999.0,89,-99.99,,,-99.99,Homeseer,2013-04-12 05:08:00,
2013-04-12 01:18:00,32.9,30.8,-100.00,North,-999,-999.0,-999.0,89,-99.99,,,-99.99,Homeseer,2013-04-12 05:18:00,
2013-04-12 01:28:00,33.1,31.2,-100.00,North,-999,-999.0,-999.0,90,-99.99,,,-99.99,Homeseer,2013-04-12 05:28:00,
2013-04-12 01:38:00,32.9,31.0,-100.00,North,-999,-999.0,-999.0,90,-99.99,,,-99.99,Homeseer,2013-04-12 05:38:00,
2013-04-12 01:48:00,32.9,31.0,-100.00,North,-999,-999.0,-999.0,90,-99.99,,,-99.99,Homeseer,2013-04-12 05:48:00,
2013-04-12 01:58:00,32.9,31.0,-100.00,North,-999,-999.0,-999.0,90,-99.99,,,-99.99,Homeseer,2013-04-12 05:58:00,
2013-04-12 02:08:00,32.9,31.0,-100.00,North,-999,-999.0,-999.0,90,-99.99,,,-99.99,Homeseer,2013-04-12 06:08:00,
2013-04-12 02:18:00,32.9,31.0,-100.00,North,-999,-999.0,-999.0,90,-99.99,,,-99.99,Homeseer,2013-04-12 06:18:00,
2013-04-12 02:28:00,32.9,31.0,-100.00,North,-999,-999.0,-999.0,90,-99.99,,,-99.99,Homeseer,2013-04-12 06:28:00,
2013-04-12 02:38:00,0.0,0.0,-100.00,North,-999,-999.0,-999.0,0,-99.99,,,-99.99,Homeseer,2013-04-12 06:38:00,
2013-04-12 02:48:00,0.0,0.0,-100.00,North,-999,-999.0,-999.0,0,-99.99,,,-99.99,Homeseer,2013-04-12 06:48:00,
2013-04-12 02:58:00,0.0,0.0,-100.00,North,-999,-999.0,-999.0,0,-99.99,,,-99.99,Homeseer,2013-04-12 06:58:00,
2013-04-12 03:08:00,0.0,0.0,-100.00,North,-999,-999.0,-999.0,0,-99.99,,,-99.99,Homeseer,2013-04-12 07:08:00,
2013-04-12 03:18:00,0.0,0.0,-100.00,North,-999,-999.0,-999.0,0,-99.99,,,-99.99,Homeseer,2013-04-12 07:18:00,
2013-04-12 03:28:00,32.5,30.8,-100.00,North,-999,-999.0,-999.0,91,-99.99,,,-99.99,Homeseer,2013-04-12 07:28:00,
2013-04-12 03:38:00,32.5,30.8,-100.00,North,-999,-999.0,-999.0,91,-99.99,,,-99.99,Homeseer,2013-04-12 07:38:00,
2013-04-12 03:48:00,32.5,30.8,-100.00,North,-999,-999.0,-999.0,91,-99.99,,,-99.99,Homeseer,2013-04-12 07:48:00,
2013-04-12 03:58:00,32.5,31.0,-100.00,North,-999,-999.0,-999.0,92,-99.99,,,-99.99,Homeseer,2013-04-12 07:58:00,
2013-04-12 04:08:00,32.7,31.2,-100.00,North,-999,-999.0,-999.0,92,-99.99,,,-99.99,Homeseer,2013-04-12 08:08:00,
2013-04-12 04:18:00,32.5,31.0,-100.00,North,-999,-999.0,-999.0,92,-99.99,,,-99.99,Homeseer,2013-04-12 08:18:00,
2013-04-12 04:28:00,32.9,31.4,-100.00,North,-999,-999.0,-999.0,92,-99.99,,,-99.99,Homeseer,2013-04-12 08:28:00,
2013-04-12 04:38:00,32.9,31.4,-100.00,North,-999,-999.0,-999.0,92,-99.99,,,-99.99,Homeseer,2013-04-12 08:38:00,
2013-04-12 04:48:00,32.9,31.4,-100.00,North,-999,-999.0,-999.0,92,-99.99,,,-99.99,Homeseer,2013-04-12 08:48:00,
2013-04-12 04:58:00,32.7,31.2,-100.00,North,-999,-999.0,-999.0,92,-99.99,,,-99.99,Homeseer,2013-04-12 08:58:00,
2013-04-12 05:08:00,32.9,31.6,-100.00,North,-999,-999.0,-999.0,93,-99.99,,,-99.99,Homeseer,2013-04-12 09:08:00,
2013-04-12 05:18:00,32.9,31.6,-100.00,North,-999,-999.0,-999.0,93,-99.99,,,-99.99,Homeseer,2013-04-12 09:18:00,
2013-04-12 05:28:00,33.1,31.8,-100.00,North,-999,-999.0,-999.0,93,-99.99,,,-99.99,Homeseer,2013-04-12 09:28:00,
2013-04-12 05:38:00,33.1,31.8,-100.00,North,-999,-999.0,-999.0,93,-99.99,,,-99.99,Homeseer,2013-04-12 09:38:00,
2013-04-12 05:48:00,33.1,31.8,-100.00,North,-999,-999.0,-999.0,93,-99.99,,,-99.99,Homeseer,2013-04-12 09:48:00,
2013-04-12 05:58:00,33.1,31.8,-100.00,North,-999,-999.0,-999.0,93,-99.99,,,-99.99,Homeseer,2013-04-12 09:58:00,
2013-04-12 06:08:00,33.3,32.0,-100.00,North,-999,-999.0,-999.0,93,-99.99,,,-99.99,Homeseer,2013-04-12 10:08:00,
2013-04-12 06:18:00,33.3,32.0,-100.00,North,-999,-999.0,-999.0,93,-99.99,,,-99.99,Homeseer,2013-04-12 10:18:00,
2013-04-12 06:28:00,33.3,32.0,-100.00,North,-999,-999.0,-999.0,93,-99.99,,,-99.99,Homeseer,2013-04-12 10:28:00,
2013-04-12 06:38:00,33.6,32.5,-100.00,North,-999,-999.0,-999.0,94,-99.99,,,-99.99,Homeseer,2013-04-12 10:38:00,
2013-04-12 06:48:00,33.6,32.5,-100.00,North,-999,-999.0,-999.0,94,-99.99,,,-99.99,Homeseer,2013-04-12 10:48:00,
2013-04-12 06:58:00,33.8,32.9,-100.00,North,-999,-999.0,-999.0,95,-99.99,,,-99.99,Homeseer,2013-04-12 10:58:00,
2013-04-12 07:08:00,34.0,33.1,-100.00,North,-999,-999.0,-999.0,95,-99.99,,,-99.99,Homeseer,2013-04-12 11:08:00,
2013-04-12 07:18:00,34.2,33.3,-100.00,North,-999,-999.0,-999.0,95,-99.99,,,-99.99,Homeseer,2013-04-12 11:18:00,
2013-04-12 07:28:00,34.3,33.4,-100.00,North,-999,-999.0,-999.0,95,-99.99,,,-99.99,Homeseer,2013-04-12 11:28:00,
2013-04-12 07:38:00,34.3,33.6,-100.00,North,-999,-999.0,-999.0,96,-99.99,,,-99.99,Homeseer,2013-04-12 11:38:00,
2013-04-12 07:48:00,34.3,33.6,-100.00,North,-999,-999.0,-999.0,96,-99.99,,,-99.99,Homeseer,2013-04-12 11:48:00,
2013-04-12 07:58:00,34.3,33.6,-100.00,North,-999,-999.0,-999.0,96,-99.99,,,-99.99,Homeseer,2013-04-12 11:58:00,
2013-04-12 08:08:00,34.5,33.8,-100.00,North,-999,-999.0,-999.0,96,-99.99,,,-99.99,Homeseer,2013-04-12 12:08:00,
2013-04-12 08:18:00,34.5,33.8,-100.00,North,-999,-999.0,-999.0,96,-99.99,,,-99.99,Homeseer,2013-04-12 12:18:00,
2013-04-12 08:28:00,34.5,33.8,-100.00,North,-999,-999.0,-999.0,96,-99.99,,,-99.99,Homeseer,2013-04-12 12:28:00,
2013-04-12 08:38:00,34.5,34.0,-100.00,North,-999,-999.0,-999.0,97,-99.99,,,-99.99,Homeseer,2013-04-12 12:38:00,
2013-04-12 08:48:00,34.7,34.2,-100.00,North,-999,-999.0,-999.0,97,-99.99,,,-99.99,Homeseer,2013-04-12 12:48:00,
2013-04-12 08:58:00,34.7,34.2,-100.00,North,-999,-999.0,-999.0,97,-99.99,,,-99.99,Homeseer,2013-04-12 12:58:00,
2013-04-12 09:08:00,34.5,34.0,-100.00,North,-999,-999.0,-999.0,97,-99.99,,,-99.99,Homeseer,2013-04-12 13:08:00,
2013-04-12 09:18:00,34.5,34.0,-100.00,North,-999,-999.0,-999.0,97,-99.99,,,-99.99,Homeseer,2013-04-12 13:18:00,
2013-04-12 09:28:00,34.5,34.0,-100.00,North,-999,-999.0,-999.0,97,-99.99,,,-99.99,Homeseer,2013-04-12 13:28:00,
2013-04-12 09:38:00,34.5,34.0,-100.00,North,-999,-999.0,-999.0,97,-99.99,,,-99.99,Homeseer,2013-04-12 13:38:00,
2013-04-12 09:48:00,34.5,34.0,-100.00,North,-999,-999.0,-999.0,97,-99.99,,,-99.99,Homeseer,2013-04-12 13:48:00,
2013-04-12 09:58:00,34.5,34.0,-100.00,North,-999,-999.0,-999.0,97,-99.99,,,-99.99,Homeseer,2013-04-12 13:58:00,
2013-04-12 10:08:00,34.5,34.0,-100.00,North,-999,-999.0,-999.0,97,-99.99,,,-99.99,Homeseer,2013-04-12 14:08:00,
2013-04-12 10:18:00,34.3,33.8,-100.00,North,-999,-999.0,-999.0,97,-99.99,,,-99.99,Homeseer,2013-04-12 14:18:00,
2013-04-12 10:28:00,34.5,34.0,-100.00,North,-999,-999.0,-999.0,97,-99.99,,,-99.99,Homeseer,2013-04-12 14:28:00,
2013-04-12 10:38:00,34.9,34.5,-100.00,North,-999,-999.0,-999.0,98,-99.99,,,-99.99,Homeseer,2013-04-12 14:38:00,
2013-04-12 10:48:00,34.7,34.3,-100.00,North,-999,-999.0,-999.0,98,-99.99,,,-99.99,Homeseer,2013-04-12 14:48:00,
2013-04-12 10:58:00,34.7,34.3,-100.00,North,-999,-999.0,-999.0,98,-99.99,,,-99.99,Homeseer,2013-04-12 14:58:00,
2013-04-12 11:08:00,35.1,34.7,-100.00,North,-999,-999.0,-999.0,98,-99.99,,,-99.99,Homeseer,2013-04-12 15:08:00,
2013-04-12 11:18:00,35.2,34.8,-100.00,North,-999,-999.0,-999.0,98,-99.99,,,-99.99,Homeseer,2013-04-12 15:18:00,
2013-04-12 11:28:00,35.4,35.0,-100.00,North,-999,-999.0,-999.0,98,-99.99,,,-99.99,Homeseer,2013-04-12 15:28:00,
2013-04-12 11:38:00,35.6,35.2,-100.00,North,-999,-999.0,-999.0,98,-99.99,,,-99.99,Homeseer,2013-04-12 15:38:00,
2013-04-12 11:48:00,35.6,35.2,-100.00,North,-999,-999.0,-999.0,98,-99.99,,,-99.99,Homeseer,2013-04-12 15:48:00,
2013-04-12 11:58:00,35.6,35.2,-100.00,North,-999,-999.0,-999.0,98,-99.99,,,-99.99,Homeseer,2013-04-12 15:58:00,
2013-04-12 12:08:00,35.8,35.4,-100.00,North,-999,-999.0,-999.0,98,-99.99,,,-99.99,Homeseer,2013-04-12 16:08:00,
2013-04-12 12:18:00,36.0,35.6,-100.00,North,-999,-999.0,-999.0,98,-99.99,,,-99.99,Homeseer,2013-04-12 16:18:00,
2013-04-12 12:28:00,36.1,35.7,-100.00,North,-999,-999.0,-999.0,98,-99.99,,,-99.99,Homeseer,2013-04-12 16:28:00,
2013-04-12 12:38:00,36.1,35.7,-100.00,North,-999,-999.0,-999.0,98,-99.99,,,-99.99,Homeseer,2013-04-12 16:38:00,
2013-04-12 12:48:00,36.5,36.1,-100.00,North,-999,-999.0,-999.0,98,-99.99,,,-99.99,Homeseer,2013-04-12 16:48:00,
2013-04-12 12:58:00,36.3,35.9,-100.00,North,-999,-999.0,-999.0,98,-99.99,,,-99.99,Homeseer,2013-04-12 16:58:00,
2013-04-12 13:08:00,36.3,35.9,-100.00,North,-999,-999.0,-999.0,98,-99.99,,,-99.99,Homeseer,2013-04-12 17:08:00,
2013-04-12 13:18:00,36.5,36.1,-100.00,North,-999,-999.0,-999.0,98,-99.99,,,-99.99,Homeseer,2013-04-12 17:18:00,
2013-04-12 13:28:00,36.5,36.1,-100.00,North,-999,-999.0,-999.0,98,-99.99,,,-99.99,Homeseer,2013-04-12 17:28:00,
2013-04-12 13:38:00,36.3,35.9,-100.00,North,-999,-999.0,-999.0,98,-99.99,,,-99.99,Homeseer,2013-04-12 17:38:00,
2013-04-12 13:48:00,36.7,36.3,-100.00,North,-999,-999.0,-999.0,98,-99.99,,,-99.99,Homeseer,2013-04-12 17:48:00,
2013-04-12 13:58:00,36.9,36.5,-100.00,North,-999,-999.0,-999.0,98,-99.99,,,-99.99,Homeseer,2013-04-12 17:58:00,
2013-04-12 14:08:00,36.9,36.5,-100.00,North,-999,-999.0,-999.0,98,-99.99,,,-99.99,Homeseer,2013-04-12 18:08:00,
2013-04-12 15:28:00,37.0,36.6,-100.00,North,-999,-999.0,-999.0,98,-99.99,,,-99.99,Homeseer,2013-04-12 19:28:00,
2013-04-12 15:48:00,36.9,36.5,-100.00,North,-999,-999.0,-999.0,98,-99.99,,,-99.99,Homeseer,2013-04-12 19:48:00,
2013-04-12 15:58:00,36.9,36.5,-100.00,North,-999,-999.0,-999.0,98,-99.99,,,-99.99,Homeseer,2013-04-12 19:58:00,
2013-04-12 16:08:00,37.0,36.6,-100.00,North,-999,-999.0,-999.0,98,-99.99,,,-99.99,Homeseer,2013-04-12 20:08:00,
2013-04-12 16:18:00,37.0,36.6,-100.00,North,-999,-999.0,-999.0,98,-99.99,,,-99.99,Homeseer,2013-04-12 20:18:00,
2013-04-12 16:28:00,36.9,36.5,-100.00,North,-999,-999.0,-999.0,98,-99.99,,,-99.99,Homeseer,2013-04-12 20:28:00,
2013-04-12 16:38:00,36.9,36.5,-100.00,North,-999,-999.0,-999.0,98,-99.99,,,-99.99,Homeseer,2013-04-12 20:38:00,
2013-04-12 16:48:00,36.7,36.3,-100.00,North,-999,-999.0,-999.0,98,-99.99,,,-99.99,Homeseer,2013-04-12 20:48:00,
2013-04-12 16:58:00,36.7,36.3,-100.00,North,-999,-999.0,-999.0,98,-99.99,,,-99.99,Homeseer,2013-04-12 20:58:00,
2013-04-12 17:08:00,36.7,36.3,-100.00,North,-999,-999.0,-999.0,98,-99.99,,,-99.99,Homeseer,2013-04-12 21:08:00,
2013-04-12 17:18:00,36.9,36.5,-100.00,North,-999,-999.0,-999.0,98,-99.99,,,-99.99,Homeseer,2013-04-12 21:18:00,
2013-04-12 17:28:00,36.7,36.3,-100.00,North,-999,-999.0,-999.0,98,-99.99,,,-99.99,Homeseer,2013-04-12 21:28:00,
2013-04-12 17:38:00,36.9,36.5,-100.00,North,-999,-999.0,-999.0,98,-99.99,,,-99.99,Homeseer,2013-04-12 21:38:00,
2013-04-12 17:48:00,36.7,36.3,-100.00,North,-999,-999.0,-999.0,98,-99.99,,,-99.99,Homeseer,2013-04-12 21:48:00,
2013-04-12 17:58:00,37.2,36.8,-100.00,North,-999,-999.0,-999.0,98,-99.99,,,-99.99,Homeseer,2013-04-12 21:58:00,
2013-04-12 18:08:00,36.9,36.5,-100.00,North,-999,-999.0,-999.0,98,-99.99,,,-99.99,Homeseer,2013-04-12 22:08:00,
2013-04-12 18:28:00,37.0,36.6,-100.00,North,-999,-999.0,-999.0,98,-99.99,,,-99.99,Homeseer,2013-04-12 22:28:00,
2013-04-12 18:38:00,37.0,36.6,-100.00,North,-999,-999.0,-999.0,98,-99.99,,,-99.99,Homeseer,2013-04-12 22:38:00,
2013-04-12 18:48:00,36.9,36.5,-100.00,North,-999,-999.0,-999.0,98,-99.99,,,-99.99,Homeseer,2013-04-12 22:48:00,
2013-04-12 18:58:00,36.9,36.5,-100.00,North,-999,-999.0,-999.0,98,-99.99,,,-99.99,Homeseer,2013-04-12 22:58:00,
2013-04-12 19:08:00,37.4,37.0,-100.00,North,-999,-999.0,-999.0,98,-99.99,,,-99.99,Homeseer,2013-04-12 23:08:00,
2013-04-12 19:18:00,37.0,36.6,-100.00,North,-999,-999.0,-999.0,98,-99.99,,,-99.99,Homeseer,2013-04-12 23:18:00,
2013-04-12 19:28:00,37.4,37.0,-100.00,North,-999,-999.0,-999.0,98,-99.99,,,-99.99,Homeseer,2013-04-12 23:28:00,
2013-04-12 19:38:00,37.2,36.8,-100.00,North,-999,-999.0,-999.0,98,-99.99,,,-99.99,Homeseer,2013-04-12 23:38:00,
2013-04-12 19:48:00,37.0,36.6,-100.00,North,-999,-999.0,-999.0,98,-99.99,,,-99.99,Homeseer,2013-04-12 23:48:00,
2013-04-12 19:58:00,37.2,36.8,-100.00,North,-999,-999.0,-999.0,98,-99.99,,,-99.99,Homeseer,2013-04-12 23:58:00,
2013-04-12 20:08:00,36.9,36.5,-100.00,North,-999,-999.0,-999.0,98,-99.99,,,-99.99,Homeseer,2013-04-13 00:08:00,
2013-04-12 20:18:00,37.0,36.6,-100.00,North,-999,-999.0,-999.0,98,-99.99,,,-99.99,Homeseer,2013-04-13 00:18:00,
2013-04-12 20:28:00,37.0,36.6,-100.00,North,-999,-999.0,-999.0,98,-99.99,,,-99.99,Homeseer,2013-04-13 00:28:00,
2013-04-12 20:38:00,36.9,36.5,-100.00,North,-999,-999.0,-999.0,98,-99.99,,,-99.99,Homeseer,2013-04-13 00:38:00,
2013-04-12 20:48:00,37.0,36.6,-100.00,North,-999,-999.0,-999.0,98,-99.99,,,-99.99,Homeseer,2013-04-13 00:48:00,
2013-04-12 20:58:00,37.0,36.6,-100.00,North,-999,-999.0,-999.0,98,-99.99,,,-99.99,Homeseer,2013-04-13 00:58:00,
2013-04-12 21:08:00,37.0,36.6,-100.00,North,-999,-999.0,-999.0,98,-99.99,,,-99.99,Homeseer,2013-04-13 01:08:00,
2013-04-12 21:18:00,37.0,36.6,-100.00,North,-999,-999.0,-999.0,98,-99.99,,,-99.99,Homeseer,2013-04-13 01:18:00,
2013-04-12 21:28:00,37.0,36.6,-100.00,North,-999,-999.0,-999.0,98,-99.99,,,-99.99,Homeseer,2013-04-13 01:28:00,
2013-04-12 21:38:00,37.0,36.6,-100.00,North,-999,-999.0,-999.0,98,-99.99,,,-99.99,Homeseer,2013-04-13 01:38:00,
2013-04-12 21:48:00,36.9,36.5,-100.00,North,-999,-999.0,-999.0,98,-99.99,,,-99.99,Homeseer,2013-04-13 01:48:00,
2013-04-12 21:58:00,37.0,36.6,-100.00,North,-999,-999.0,-999.0,98,-99.99,,,-99.99,Homeseer,2013-04-13 01:58:00,
2013-04-12 22:08:00,37.0,36.6,-100.00,North,-999,-999.0,-999.0,98,-99.99,,,-99.99,Homeseer,2013-04-13 02:08:00,
2013-04-12 22:18:00,37.0,36.6,-100.00,North,-999,-999.0,-999.0,98,-99.99,,,-99.99,Homeseer,2013-04-13 02:18:00,
2013-04-12 22:28:00,37.0,36.6,-100.00,North,-999,-999.0,-999.0,98,-99.99,,,-99.99,Homeseer,2013-04-13 02:28:00,
2013-04-12 22:38:00,37.0,36.6,-100.00,North,-999,-999.0,-999.0,98,-99.99,,,-99.99,Homeseer,2013-04-13 02:38:00,
2013-04-12 22:48:00,37.2,36.8,-100.00,North,-999,-999.0,-999.0,98,-99.99,,,-99.99,Homeseer,2013-04-13 02:48:00,
2013-04-12 22:58:00,37.4,37.0,-100.00,North,-999,-999.0,-999.0,98,-99.99,,,-99.99,Homeseer,2013-04-13 02:58:00,
2013-04-12 23:08:00,36.9,36.5,-100.00,North,-999,-999.0,-999.0,98,-99.99,,,-99.99,Homeseer,2013-04-13 03:08:00,
2013-04-12 23:18:00,37.0,36.6,-100.00,North,-999,-999.0,-999.0,98,-99.99,,,-99.99,Homeseer,2013-04-13 03:18:00,
2013-04-12 23:28:00,37.2,36.8,-100.00,North,-999,-999.0,-999.0,98,-99.99,,,-99.99,Homeseer,2013-04-13 03:28:00,
2013-04-12 23:38:00,36.9,36.5,-100.00,North,-999,-999.0,-999.0,98,-99.99,,,-99.99,Homeseer,2013-04-13 03:38:00,
2013-04-12 23:48:00,37.2,36.8,-100.00,North,-999,-999.0,-999.0,98,-99.99,,,-99.99,Homeseer,2013-04-13 03:48:00,
2013-04-12 23:58:00,37.0,36.6,-100.00,North,-999,-999.0,-999.0,98,-99.99,,,-99.99,Homeseer,2013-04-13 03:58:00,